Historyczne dane pomiarowe

Dodano dane terminowe – wersja testowa.

Dane z okresu 1951-2019

Wersja bazy: 1.34 [2019-03-16, lista zmian], aktualizacja planowana na 2019-04-15

Dane meteo z obszaru Polski uzyskane na podstawie danych udostępnionych przez Instytut Meteorologii i Gospodarki Wodnej – Państwowy Instytut Badawczy.

 

Wybierz Datę:    

       

TemperaturaWilgotnośćWiatrCiśnienieOpadyŚniegCzas trwania zjawisk
 Stacja t tx tn tng RH VA  wxwx mslp ppp RRR   cm mm wxwxwxwxwxwxwx
1997-12-13 4.2 6.7 2.5 1.8 95.8- 8.0 4.0---- 1.8------------
1997-12-14 2.1 3.0 1.6 0.7 88.0- 8.0 0.7---- 0.4------------
1997-12-15 -5.9 1.6-10.4-11.3 85.8- 8.0 2.7---- 0.5------------
1997-12-16-12.3 -9.9-13.8-13.9 77.5- 2.7 3.3---- 0.0-- 2---------
1997-12-17-12.2 -7.5-16.2-17.1 79.0- 0.0 3.3---- 0.0-- 2---------
1997-12-18 -4.3 0.7 -9.4-10.6 88.5- 1.0 1.0---- 0.0-- 1---------
1997-12-19 -0.7 2.1 -3.3 -8.0 89.0- 6.7 0.0---- 0.3-- 1---------
1997-12-20 -0.5 2.7 -3.7 -6.9 93.3- 4.3 0.7---- 0.8------------
1997-12-21 1.4 5.2 -0.7 -4.7 96.8- 6.7 0.3---- 0.0------------
1997-12-22 -0.4 1.3 -2.7 -5.2 98.5- 5.3 0.3---- 0.0------------
1997-12-23 0.9 2.2 0.3 -1.2 97.8- 8.0 0.0---- 0.0------------
1997-12-24 2.5 5.2 0.7 -1.1 90.3- 6.7 1.3---- 5.0------------
1997-12-25 6.2 9.8 2.0 0.0 95.5- 7.0 2.3---- 0.1------------
1997-12-26 9.2 12.1 6.2 1.5 82.3- 4.7 4.3---- 0.0------------
1997-12-27 5.3 8.2 3.6 -1.2 85.3- 6.0 1.0---- 0.0------------
1997-12-28 2.3 5.1 0.1 -4.9 95.0- 5.7 0.7---- 2.0------------
1997-12-29 2.0 7.7 -0.6 -5.0 94.0- 6.3 0.3---- 0.0------------
1997-12-30 1.1 4.6 -1.0 -5.5 93.0- 6.7 0.3---- 0.0------------
1997-12-31 -0.4 4.4 -3.6 -7.2 79.5- 2.3 0.3---- 0.0------------
1998-01-01 3.0 11.2 -0.2 -3.4 84.0- 2.3 0.7---- 0.0------------
1998-01-02 1.2 5.2 -2.1 -5.6 92.8- 4.3 1.0---- 0.3------------
1998-01-03 5.6 10.1 1.3 -2.7 76.3- 7.3 1.7---- 0.0------------
1998-01-04 5.2 8.4 3.7 0.3 69.5- 6.7 3.0---- 1.7------------
1998-01-05 5.6 8.3 3.2 -0.6 66.0- 6.7 4.3---- 0.0------------
1998-01-06 4.8 6.9 3.7 -1.7 90.8- 7.3 7.3---- 4.2------------
1998-01-07 5.4 9.2 1.4 -2.3 87.0- 7.3 2.0---- 0.0------------
1998-01-08 7.6 10.2 5.8 1.3 78.3- 7.3 5.0---- 4.3------------
1998-01-09 6.9 8.9 5.3 2.8 92.8- 8.0 2.7---- 15.2------------
1998-01-10 8.0 9.9 5.2 2.6 92.3- 7.7 1.0---- 0.0------------
1998-01-11 5.1 15.7 0.6 -3.1 85.8- 0.0 0.3---- 0.0------------
777.6 ms

 

Źródłem pochodzenia danych jest Instytut Meteorologii i Gospodarki Wodnej – Państwowy Instytut Badawczy. Dane Instytutu Meteorologii i Gospodarki Wodnej – Państwowego Instytutu Badawczego zostały przetworzone.

Dane źródłowe można odnaleźć na stronie https://dane.imgw.pl